Time;durP1;ratioP1;P1;durP2;ratioP2;P2;SDS_P1;SDS_P2;PMS_P1;PMS_P2;Temp;Humidity;BMP_temperature;BMP_pressure;BME280_temperature;BME280_humidity;BME280_pressure;Samples;Min_cycle;Max_cycle;Signal;HPM_P1;HPM_P2
2021/10/06 04:32:21;;;;;;;4.27;0.97;;;9.50;99.90;;;;;;5272934;23;20508;-77
2021/10/06 04:34:46;;;;;;;1.03;0.70;;;9.50;99.90;;;;;;4991207;28;20841;-79
2021/10/06 04:37:12;;;;;;;2.93;0.70;;;9.50;99.90;;;;;;4996498;28;20246;-79
2021/10/06 04:39:39;;;;;;;1.90;0.93;;;9.50;99.90;;;;;;4994524;28;20355;-79
2021/10/06 04:42:05;;;;;;;1.70;1.60;;;9.50;99.90;;;;;;4983080;28;20204;-78
2021/10/06 04:44:31;;;;;;;2.40;1.53;;;9.50;99.90;;;;;;4974771;28;20419;-78
2021/10/06 04:46:56;;;;;;;4.40;0.87;;;9.60;99.90;;;;;;4975164;28;20169;-78
2021/10/06 04:49:22;;;;;;;0.90;0.70;;;9.60;99.90;;;;;;4976592;28;20188;-78
2021/10/06 04:51:47;;;;;;;0.90;0.70;;;9.60;99.90;;;;;;4978956;28;20205;-79
2021/10/06 04:54:13;;;;;;;2.40;0.97;;;9.70;99.90;;;;;;4976989;28;20199;-76
2021/10/06 04:56:38;;;;;;;1.27;0.80;;;9.70;99.90;;;;;;4957228;29;20190;-78
2021/10/06 04:59:04;;;;;;;5.23;0.80;;;9.70;99.90;;;;;;4956743;29;20706;-80
2021/10/06 05:01:30;;;;;;;0.70;0.70;;;9.70;99.90;;;;;;4955997;29;20213;-79
2021/10/06 05:03:55;;;;;;;4.37;0.87;;;9.80;99.90;;;;;;4957247;29;20184;-78
2021/10/06 05:06:20;;;;;;;7.40;0.77;;;9.80;99.90;;;;;;4957554;29;20236;-79
2021/10/06 05:08:46;;;;;;;4.20;0.80;;;9.80;99.90;;;;;;4955725;29;20597;-79
2021/10/06 05:11:12;;;;;;;1.07;0.63;;;9.80;99.90;;;;;;4957152;29;20676;-80
2021/10/06 05:13:38;;;;;;;1.20;1.10;;;9.80;99.90;;;;;;4957232;28;20182;-80
2021/10/06 05:16:04;;;;;;;1.70;0.83;;;9.80;99.90;;;;;;4955743;28;20436;-78
2021/10/06 05:18:30;;;;;;;3.33;0.80;;;9.70;99.90;;;;;;4956996;29;20409;-79
2021/10/06 05:20:55;;;;;;;1.20;0.80;;;9.70;99.90;;;;;;4955795;29;20219;-79
2021/10/06 05:23:21;;;;;;;3.00;0.70;;;9.70;99.90;;;;;;4954795;29;20175;-79
2021/10/06 05:25:47;;;;;;;2.70;1.20;;;9.70;99.90;;;;;;4952752;29;20268;-78
2021/10/06 05:28:12;;;;;;;3.50;0.70;;;9.70;99.90;;;;;;4972783;28;20206;-76
2021/10/06 05:30:38;;;;;;;0.90;0.77;;;9.80;99.90;;;;;;4973439;28;20714;-76
2021/10/06 05:33:03;;;;;;;2.10;0.90;;;9.80;99.90;;;;;;4971563;28;20254;-77
2021/10/06 05:35:29;;;;;;;1.07;0.70;;;9.80;99.90;;;;;;4972268;28;20186;-78
2021/10/06 05:37:54;;;;;;;1.00;0.83;;;9.80;99.90;;;;;;4973677;28;20200;-77
2021/10/06 05:40:20;;;;;;;2.33;1.10;;;9.80;99.90;;;;;;4971853;28;20667;-77
2021/10/06 05:42:45;;;;;;;4.00;1.27;;;9.80;99.90;;;;;;4972525;28;20211;-76
2021/10/06 05:45:11;;;;;;;0.60;0.60;;;9.80;99.90;;;;;;4973582;28;20177;-77
2021/10/06 05:47:36;;;;;;;1.77;0.90;;;9.80;99.90;;;;;;4972288;28;20185;-77
2021/10/06 05:50:03;;;;;;;1.60;0.87;;;9.80;99.90;;;;;;4973647;28;20537;-76
2021/10/06 05:52:29;;;;;;;3.20;0.80;;;9.80;99.90;;;;;;4973542;28;20619;-76
2021/10/06 05:54:54;;;;;;;2.23;0.90;;;9.80;99.90;;;;;;4960642;28;20482;-75
2021/10/06 05:57:21;;;;;;;3.80;0.87;;;9.80;99.90;;;;;;4954012;29;20551;-74
2021/10/06 05:59:46;;;;;;;1.40;1.00;;;9.90;99.90;;;;;;4958129;28;20267;-80
2021/10/06 06:02:12;;;;;;;1.17;0.60;;;9.90;99.90;;;;;;4954055;28;20526;-76
2021/10/06 06:04:37;;;;;;;4.50;0.60;;;9.90;99.90;;;;;;4953538;29;20202;-75
2021/10/06 06:07:04;;;;;;;1.20;1.00;;;9.90;99.90;;;;;;4952489;28;20218;-76
2021/10/06 06:09:29;;;;;;;0.97;0.60;;;9.90;99.90;;;;;;4962230;28;20265;-76
2021/10/06 06:11:55;;;;;;;2.80;0.80;;;9.90;99.90;;;;;;4967242;28;20538;-78
2021/10/06 06:14:21;;;;;;;1.17;1.07;;;9.90;99.90;;;;;;4972682;28;20590;-77
2021/10/06 06:16:46;;;;;;;2.53;0.70;;;9.90;99.90;;;;;;4961039;28;20187;-77
2021/10/06 06:19:12;;;;;;;1.47;1.07;;;9.90;99.90;;;;;;4963747;28;20205;-77
2021/10/06 06:21:40;;;;;;;1.00;0.90;;;9.80;99.90;;;;;;4972876;28;20197;-76
2021/10/06 06:24:06;;;;;;;1.77;0.80;;;9.80;99.90;;;;;;4971040;28;20723;-78
2021/10/06 06:26:31;;;;;;;0.70;0.60;;;9.80;99.90;;;;;;4972271;28;20520;-77
2021/10/06 06:28:57;;;;;;;1.13;1.03;;;9.80;99.90;;;;;;4973082;28;20651;-77
2021/10/06 06:31:22;;;;;;;4.93;1.07;;;9.80;99.90;;;;;;4971204;28;20279;-77
2021/10/06 06:33:48;;;;;;;1.83;0.80;;;9.80;99.90;;;;;;4972790;28;20227;-77
2021/10/06 06:36:14;;;;;;;3.50;0.90;;;9.90;99.90;;;;;;4973107;28;20209;-76
2021/10/06 06:38:39;;;;;;;2.77;0.90;;;10.30;99.90;;;;;;4971509;28;20273;-77
2021/10/06 06:41:05;;;;;;;2.17;0.80;;;11.00;99.90;;;;;;4972975;28;20732;-77
2021/10/06 06:43:31;;;;;;;2.00;1.10;;;11.20;99.90;;;;;;4972874;28;20569;-77
2021/10/06 06:45:57;;;;;;;2.00;0.80;;;11.20;99.90;;;;;;4971392;28;20222;-75
2021/10/06 06:48:22;;;;;;;3.40;0.60;;;11.00;99.90;;;;;;4972509;28;20270;-76
2021/10/06 06:50:53;;;;;;;4.57;0.90;;;10.90;99.90;;;;;;4971865;28;20576;-78
2021/10/06 06:53:20;;;;;;;1.67;0.80;;;10.80;99.90;;;;;;4971194;28;20186;-78
2021/10/06 06:55:46;;;;;;;1.43;0.80;;;10.70;99.90;;;;;;4976678;28;20440;-77
2021/10/06 06:58:12;;;;;;;2.03;0.80;;;10.70;99.90;;;;;;4976981;28;20422;-76
2021/10/06 07:00:37;;;;;;;5.13;1.40;;;10.60;99.90;;;;;;4974726;28;20475;-76
2021/10/06 07:03:03;;;;;;;2.50;0.90;;;10.60;99.90;;;;;;4973847;28;20190;-77
2021/10/06 07:05:28;;;;;;;3.23;0.70;;;10.60;99.90;;;;;;4964638;28;20250;-77
2021/10/06 07:07:54;;;;;;;0.77;0.77;;;10.50;99.90;;;;;;4955520;29;20194;-77
2021/10/06 07:10:20;;;;;;;1.40;0.60;;;10.50;99.90;;;;;;4955471;29;20844;-77
2021/10/06 07:12:45;;;;;;;2.17;1.47;;;10.60;99.90;;;;;;4956932;28;20220;-76
2021/10/06 07:15:11;;;;;;;0.93;0.60;;;10.60;99.90;;;;;;4955157;29;20178;-76
2021/10/06 07:17:36;;;;;;;3.73;0.77;;;10.70;99.90;;;;;;4956760;29;20542;-76
2021/10/06 07:20:02;;;;;;;2.63;1.03;;;10.70;99.90;;;;;;4956435;29;20207;-76
2021/10/06 07:22:28;;;;;;;2.27;0.90;;;10.80;99.90;;;;;;4956126;28;20605;-76
2021/10/06 07:24:55;;;;;;;0.80;0.70;;;11.10;99.90;;;;;;4957254;29;20176;-76
2021/10/06 07:27:20;;;;;;;0.70;0.60;;;12.10;99.90;;;;;;4956673;28;20179;-76
2021/10/06 07:29:46;;;;;;;1.47;1.03;;;12.80;99.90;;;;;;4954928;29;20416;-77
2021/10/06 07:32:12;;;;;;;2.20;1.07;;;13.40;99.90;;;;;;4956589;28;20263;-78
2021/10/06 07:34:39;;;;;;;2.27;0.97;;;13.90;99.90;;;;;;4956308;29;20239;-76
2021/10/06 07:37:04;;;;;;;2.40;0.83;;;14.30;99.90;;;;;;4955140;28;20177;-76
2021/10/06 07:39:30;;;;;;;7.03;0.90;;;14.40;99.90;;;;;;4955999;29;20460;-76
2021/10/06 07:41:55;;;;;;;1.67;0.70;;;14.20;99.90;;;;;;4956329;29;20197;-77
2021/10/06 07:44:21;;;;;;;3.37;0.60;;;14.10;99.90;;;;;;4954546;29;20303;-76
2021/10/06 07:46:47;;;;;;;14.10;2.97;;;13.70;99.90;;;;;;4956773;29;20181;-78
2021/10/06 07:49:13;;;;;;;3.70;1.50;;;13.60;99.90;;;;;;4953923;28;20193;-78
2021/10/06 07:51:39;;;;;;;2.20;0.70;;;13.40;99.90;;;;;;4953045;29;20452;-77
2021/10/06 07:54:05;;;;;;;4.03;1.00;;;13.20;99.90;;;;;;4956266;29;20180;-77
2021/10/06 07:56:30;;;;;;;1.27;0.97;;;12.90;99.90;;;;;;4955973;28;20181;-77
2021/10/06 07:58:56;;;;;;;1.97;1.27;;;12.80;99.90;;;;;;4952895;29;20428;-77
2021/10/06 08:01:22;;;;;;;1.03;0.70;;;12.70;99.90;;;;;;4963167;28;20692;-77
2021/10/06 08:03:47;;;;;;;2.93;1.73;;;12.60;99.90;;;;;;4975453;28;20182;-76
2021/10/06 08:06:13;;;;;;;3.53;1.17;;;12.60;99.90;;;;;;4973078;28;20186;-78
2021/10/06 08:08:38;;;;;;;3.80;0.90;;;12.60;99.90;;;;;;4974644;28;20230;-79
2021/10/06 08:11:04;;;;;;;2.97;0.93;;;12.60;99.90;;;;;;4975595;28;20196;-76
2021/10/06 08:13:30;;;;;;;1.30;0.70;;;12.60;99.90;;;;;;4974797;28;20196;-78
2021/10/06 08:15:56;;;;;;;1.47;1.00;;;12.60;99.90;;;;;;4972417;28;20257;-77
2021/10/06 08:18:21;;;;;;;2.30;0.97;;;12.50;99.90;;;;;;4971291;28;20214;-77
2021/10/06 08:20:48;;;;;;;3.80;0.90;;;12.60;99.90;;;;;;4974143;28;20957;-78
2021/10/06 08:23:17;;;;;;;4.17;0.70;;;12.60;99.90;;;;;;4971825;28;20190;-77
2021/10/06 08:25:43;;;;;;;1.87;0.70;;;12.50;99.90;;;;;;4973847;28;20431;-77
2021/10/06 08:28:09;;;;;;;6.10;0.70;;;12.60;99.90;;;;;;4974951;28;20511;-80
2021/10/06 08:30:34;;;;;;;2.00;1.00;;;12.60;99.90;;;;;;4972262;28;21109;-77
2021/10/06 08:33:00;;;;;;;3.33;0.90;;;12.60;99.90;;;;;;4974831;28;20200;-79
2021/10/06 08:35:25;;;;;;;4.97;0.90;;;12.60;99.90;;;;;;4974653;28;20195;-78
2021/10/06 08:37:51;;;;;;;1.87;0.80;;;12.50;99.90;;;;;;4972934;28;20180;-77
2021/10/06 08:40:16;;;;;;;4.10;0.90;;;12.50;99.90;;;;;;4974270;28;20212;-78
2021/10/06 08:42:43;;;;;;;5.10;1.17;;;12.40;99.90;;;;;;4974025;28;20207;-78
2021/10/06 08:45:09;;;;;;;3.67;1.00;;;12.40;99.90;;;;;;4971355;28;20189;-78
2021/10/06 08:47:40;;;;;;;3.97;1.10;;;12.40;99.90;;;;;;4973211;28;20779;-77
2021/10/06 08:50:12;;;;;;;3.40;0.80;;;12.40;99.90;;;;;;4972951;28;20431;-77
2021/10/06 08:52:38;;;;;;;3.50;0.70;;;12.30;99.90;;;;;;4972444;28;21198;-77
2021/10/06 08:55:06;;;;;;;0.77;0.60;;;12.40;99.90;;;;;;4972954;28;20455;-77
2021/10/06 08:57:32;;;;;;;3.50;0.90;;;12.40;99.90;;;;;;4974090;28;20183;-77
2021/10/06 08:59:58;;;;;;;2.90;0.90;;;12.50;99.90;;;;;;4972451;28;20502;-78
2021/10/06 09:02:23;;;;;;;3.50;0.80;;;12.70;99.90;;;;;;4974270;28;20483;-78
2021/10/06 09:04:50;;;;;;;1.27;0.80;;;12.80;99.90;;;;;;4972791;28;20184;-80
2021/10/06 09:07:18;;;;;;;2.20;0.60;;;12.90;99.90;;;;;;4972630;28;20272;-77
2021/10/06 09:09:44;;;;;;;3.30;1.07;;;13.10;99.90;;;;;;4974393;28;20427;-77
2021/10/06 09:12:15;;;;;;;3.23;0.70;;;13.40;99.90;;;;;;4974089;28;20435;-77
2021/10/06 09:14:46;;;;;;;3.73;1.33;;;13.50;99.90;;;;;;4971994;28;20283;-79
2021/10/06 09:17:13;;;;;;;8.23;0.60;;;13.50;99.90;;;;;;4973701;28;20506;-78
2021/10/06 09:19:49;;;;;;;10.03;1.13;;;13.50;99.90;;;;;;4972655;28;20459;-78
2021/10/06 09:22:19;;;;;;;3.93;0.73;;;13.50;99.90;;;;;;4970999;28;20435;-78
2021/10/06 09:24:57;;;;;;;2.03;1.00;;;13.70;99.90;;;;;;4973612;28;20820;-78
2021/10/06 09:27:30;;;;;;;3.43;2.10;;;13.90;99.90;;;;;;4973284;28;20931;-78
2021/10/06 09:29:59;;;;;;;2.20;0.63;;;14.20;99.90;;;;;;4958857;28;20424;-77
2021/10/06 09:32:27;;;;;;;2.30;0.90;;;14.30;99.90;;;;;;4953280;28;20538;-78
2021/10/06 09:35:10;;;;;;;3.23;0.67;;;14.40;99.90;;;;;;4954174;28;20515;-79
2021/10/06 09:37:37;;;;;;;3.23;0.53;;;14.60;99.90;;;;;;4953949;28;20509;-78
2021/10/06 09:40:06;;;;;;;7.13;0.93;;;14.60;99.90;;;;;;4954115;28;20882;-78
2021/10/06 09:42:50;;;;;;;3.13;0.70;;;14.60;99.90;;;;;;4952923;28;20440;-80
2021/10/06 09:45:21;;;;;;;5.27;1.20;;;14.60;99.90;;;;;;4951658;28;20424;-78
2021/10/06 09:48:04;;;;;;;3.57;0.80;;;14.70;99.90;;;;;;4952157;29;20435;-78
2021/10/06 09:50:33;;;;;;;5.37;1.00;;;14.60;99.90;;;;;;4951722;29;20416;-78
2021/10/06 09:53:12;;;;;;;3.50;0.70;;;14.70;99.90;;;;;;4953708;28;20431;-78
2021/10/06 09:55:39;;;;;;;2.83;0.90;;;14.60;99.90;;;;;;4953769;28;20933;-79
2021/10/06 09:58:05;;;;;;;1.43;0.87;;;14.50;99.90;;;;;;4951816;28;20420;-80
2021/10/06 10:00:32;;;;;;;2.77;0.60;;;14.00;99.90;;;;;;4953390;28;20498;-78
2021/10/06 10:02:58;;;;;;;7.53;0.90;;;13.70;99.90;;;;;;4953873;28;20423;-78
2021/10/06 10:05:23;;;;;;;2.10;0.60;;;13.40;99.90;;;;;;4951895;28;20422;-78
2021/10/06 10:07:51;;;;;;;2.17;1.20;;;13.20;99.90;;;;;;4953402;29;20420;-79
2021/10/06 10:10:17;;;;;;;1.87;0.70;;;13.10;99.90;;;;;;4953602;28;20199;-78
2021/10/06 10:12:43;;;;;;;3.90;0.87;;;13.10;99.90;;;;;;4950935;29;20444;-78
2021/10/06 10:15:10;;;;;;;3.20;1.10;;;13.00;99.90;;;;;;4953894;28;20181;-78
2021/10/06 10:17:36;;;;;;;2.47;0.60;;;13.00;99.90;;;;;;4953824;28;20184;-77
2021/10/06 10:20:16;;;;;;;1.33;1.07;;;12.90;99.90;;;;;;4950265;29;20465;-81
2021/10/06 10:22:51;;;;;;;6.13;0.90;;;13.50;99.90;;;;;;4953405;28;20787;-78
2021/10/06 10:25:22;;;;;;;5.40;0.70;;;14.50;99.90;;;;;;4953962;28;20407;-78
2021/10/06 10:28:00;;;;;;;1.90;0.57;;;15.20;99.90;;;;;;4951404;28;20858;-77
2021/10/06 10:30:27;;;;;;;3.40;0.70;;;15.40;99.90;;;;;;4953264;29;20507;-78
2021/10/06 10:32:52;;;;;;;2.13;0.50;;;15.30;99.90;;;;;;4952154;28;20447;-78
2021/10/06 10:35:30;;;;;;;2.27;0.70;;;15.30;99.90;;;;;;4951359;29;20993;-80
2021/10/06 10:38:01;;;;;;;3.60;0.70;;;15.20;99.90;;;;;;4953054;28;20653;-79
2021/10/06 10:40:42;;;;;;;4.70;0.70;;;15.30;99.90;;;;;;4953044;29;20554;-78
2021/10/06 10:43:23;;;;;;;1.77;0.70;;;15.40;99.90;;;;;;4951429;29;20857;-78
2021/10/06 10:46:10;;;;;;;2.70;1.20;;;15.30;99.90;;;;;;4954373;28;20427;-77
2021/10/06 10:49:01;;;;;;;4.70;1.10;;;15.10;99.90;;;;;;4953457;28;20412;-78
2021/10/06 10:51:56;;;;;;;7.60;0.90;;;14.90;99.90;;;;;;4952062;29;20547;-79
2021/10/06 10:54:34;;;;;;;2.37;0.60;;;14.60;99.90;;;;;;4951025;28;20435;-78
2021/10/06 10:57:20;;;;;;;1.23;0.60;;;14.50;99.90;;;;;;4951530;29;20417;-77
2021/10/06 10:59:49;;;;;;;4.23;0.80;;;14.60;99.90;;;;;;4953029;28;20510;-78
2021/10/06 11:02:18;;;;;;;2.83;0.70;;;15.00;99.90;;;;;;4952728;28;20448;-78
2021/10/06 11:04:47;;;;;;;2.73;0.70;;;15.30;99.90;;;;;;4951610;29;20417;-79
2021/10/06 11:07:18;;;;;;;1.33;0.73;;;15.70;99.90;;;;;;4952947;28;20437;-79
2021/10/06 11:10:03;;;;;;;1.57;0.60;;;16.00;99.90;;;;;;4953103;28;20789;-79
2021/10/06 11:12:32;;;;;;;4.47;0.70;;;16.00;99.90;;;;;;4950135;29;20819;-77
2021/10/06 11:15:28;;;;;;;2.40;0.60;;;15.70;99.90;;;;;;4952790;28;20417;-78
2021/10/06 11:18:21;;;;;;;1.47;0.87;;;15.50;99.90;;;;;;4936691;28;20966;-76
2021/10/06 11:20:52;;;;;;;1.80;0.60;;;15.50;99.90;;;;;;4950976;28;20464;-78
2021/10/06 11:23:42;;;;;;;2.00;0.90;;;15.40;99.90;;;;;;4953018;28;20776;-78
2021/10/06 11:26:13;;;;;;;2.13;0.70;;;15.50;99.90;;;;;;4951199;28;20429;-78
2021/10/06 11:28:45;;;;;;;1.87;0.80;;;15.60;99.90;;;;;;4952749;28;20475;-77
2021/10/06 11:31:12;;;;;;;2.07;0.63;;;15.90;99.90;;;;;;4952382;28;20472;-78
2021/10/06 11:33:37;;;;;;;2.63;0.57;;;15.90;99.90;;;;;;4951270;28;20428;-78
2021/10/06 11:36:07;;;;;;;1.50;0.53;;;16.00;99.90;;;;;;4953085;29;20422;-78
2021/10/06 11:38:32;;;;;;;1.60;0.70;;;15.90;99.90;;;;;;4952856;29;20180;-77
2021/10/06 11:40:58;;;;;;;2.77;0.70;;;15.60;99.90;;;;;;4951904;28;20494;-78
2021/10/06 11:43:23;;;;;;;3.20;0.70;;;15.80;99.90;;;;;;4956167;29;20217;-78
2021/10/06 11:45:50;;;;;;;1.63;0.70;;;16.30;99.90;;;;;;4955907;29;20197;-78
2021/10/06 11:48:15;;;;;;;1.57;0.67;;;16.80;99.90;;;;;;4954222;28;20188;-78
2021/10/06 11:50:42;;;;;;;3.10;0.80;;;17.00;99.90;;;;;;4956139;29;20790;-78
2021/10/06 11:53:08;;;;;;;1.83;0.63;;;17.10;99.90;;;;;;4955581;28;20251;-78
2021/10/06 11:55:33;;;;;;;2.30;0.90;;;17.20;99.90;;;;;;4955338;29;20507;-79
2021/10/06 11:57:59;;;;;;;3.63;0.67;;;17.00;99.90;;;;;;4954911;29;20173;-77
2021/10/06 12:00:24;;;;;;;0.90;0.60;;;16.80;99.90;;;;;;4955973;29;20215;-79
2021/10/06 12:02:56;;;;;;;4.57;0.70;;;16.70;99.90;;;;;;4954598;29;20204;-77
2021/10/06 12:05:21;;;;;;;1.47;1.13;;;16.60;99.90;;;;;;4955019;28;20177;-78
2021/10/06 12:07:47;;;;;;;7.57;0.60;;;16.30;99.90;;;;;;4956038;29;20443;-77
2021/10/06 12:10:13;;;;;;;2.93;0.60;;;16.20;99.90;;;;;;4955710;29;20235;-78
2021/10/06 12:12:43;;;;;;;8.40;0.70;;;16.00;99.90;;;;;;4954311;28;20235;-77
2021/10/06 12:15:11;;;;;;;3.27;0.80;;;15.40;99.90;;;;;;4955823;28;20184;-77
2021/10/06 12:17:42;;;;;;;1.80;0.53;;;15.30;99.90;;;;;;4955421;28;20427;-78
2021/10/06 12:20:14;;;;;;;3.90;0.83;;;15.00;99.90;;;;;;4953740;28;20468;-78
2021/10/06 12:22:44;;;;;;;3.57;1.10;;;14.80;99.90;;;;;;4955273;28;20457;-78
2021/10/06 12:25:11;;;;;;;8.57;1.20;;;14.20;99.90;;;;;;4953528;29;20431;-78
2021/10/06 12:27:39;;;;;;;3.53;0.60;;;13.30;99.90;;;;;;4954836;28;20443;-78
2021/10/06 12:30:10;;;;;;;1.10;0.80;;;12.50;99.90;;;;;;4955104;28;20447;-78
2021/10/06 12:32:37;;;;;;;0.60;0.50;;;12.10;99.90;;;;;;4954023;28;20456;-78
2021/10/06 12:35:11;;;;;;;2.57;0.80;;;11.70;99.90;;;;;;4954601;28;20769;-77
2021/10/06 12:38:06;;;;;;;3.30;0.80;;;11.70;99.90;;;;;;4954156;28;20426;-78
2021/10/06 12:40:50;;;;;;;2.10;0.60;;;12.00;99.90;;;;;;4938070;28;20562;-77
2021/10/06 12:43:24;;;;;;;2.30;0.53;;;12.30;99.90;;;;;;4957068;28;20499;-77
2021/10/06 12:46:17;;;;;;;2.30;0.50;;;12.60;99.90;;;;;;4955191;28;20412;-77
2021/10/06 12:48:57;;;;;;;2.20;0.60;;;12.90;99.90;;;;;;4953422;28;20412;-77
2021/10/06 12:51:23;;;;;;;2.20;0.53;;;13.10;99.90;;;;;;4954641;28;20448;-78
2021/10/06 12:53:57;;;;;;;0.60;0.50;;;13.20;99.90;;;;;;4955181;29;20480;-78
2021/10/06 12:56:34;;;;;;;4.23;0.80;;;13.40;99.90;;;;;;4953291;29;20189;-76
2021/10/06 12:59:06;;;;;;;1.77;0.60;;;13.50;99.90;;;;;;4954599;28;20416;-76
2021/10/06 13:01:33;;;;;;;2.90;0.60;;;13.70;99.90;;;;;;4955350;28;20499;-77
2021/10/06 13:04:00;;;;;;;2.40;0.60;;;13.80;99.90;;;;;;4952874;28;20413;-77
2021/10/06 13:06:26;;;;;;;4.20;0.70;;;13.90;99.90;;;;;;4954807;28;20411;-77
2021/10/06 13:08:54;;;;;;;2.10;0.60;;;14.00;99.90;;;;;;4954340;29;20768;-76
2021/10/06 13:11:20;;;;;;;2.43;0.80;;;14.00;99.90;;;;;;4952793;28;20192;-76
2021/10/06 13:13:45;;;;;;;2.13;1.90;;;14.10;99.90;;;;;;4954505;28;20419;-77
2021/10/06 13:16:12;;;;;;;9.83;1.07;;;14.30;99.90;;;;;;4954490;29;20575;-77
2021/10/06 13:18:37;;;;;;;1.93;0.60;;;14.30;99.90;;;;;;4952811;28;20187;-76
2021/10/06 13:21:03;;;;;;;2.83;0.90;;;14.40;99.90;;;;;;4954122;29;20463;-77
2021/10/06 13:23:32;;;;;;;1.13;0.50;;;14.40;99.90;;;;;;4954682;29;20187;-77
2021/10/06 13:25:58;;;;;;;2.60;1.60;;;14.50;99.90;;;;;;4952293;28;20543;-78
2021/10/06 13:28:23;;;;;;;5.50;0.83;;;14.70;99.90;;;;;;4954302;28;20404;-77
2021/10/06 13:30:49;;;;;;;3.03;1.13;;;14.70;99.90;;;;;;4964961;28;20453;-78
2021/10/06 13:33:14;;;;;;;3.83;0.60;;;14.60;99.90;;;;;;4971397;28;20195;-76
2021/10/06 13:35:40;;;;;;;3.73;0.90;;;14.40;99.90;;;;;;4973340;28;20238;-76
2021/10/06 13:38:06;;;;;;;1.17;0.87;;;14.30;99.90;;;;;;4973037;28;20180;-77
2021/10/06 13:40:33;;;;;;;2.30;0.50;;;14.20;99.90;;;;;;4971231;28;20208;-76
2021/10/06 13:42:59;;;;;;;2.77;0.90;;;14.10;99.90;;;;;;4972591;28;20211;-76
2021/10/06 13:45:24;;;;;;;1.33;0.87;;;14.10;99.90;;;;;;4973388;28;20435;-76
2021/10/06 13:47:50;;;;;;;1.00;0.60;;;14.10;99.90;;;;;;4970919;28;20210;-76
2021/10/06 13:50:15;;;;;;;8.60;0.70;;;14.20;99.90;;;;;;4971679;28;20176;-76
2021/10/06 13:52:41;;;;;;;1.67;0.70;;;14.30;99.90;;;;;;4972960;28;20202;-76
2021/10/06 13:55:07;;;;;;;2.97;0.50;;;14.40;99.90;;;;;;4970583;28;20184;-77
2021/10/06 13:57:32;;;;;;;1.03;0.70;;;14.50;99.90;;;;;;4972861;28;20187;-75
2021/10/06 13:59:58;;;;;;;1.00;0.50;;;14.50;99.90;;;;;;4972340;28;20459;-77
2021/10/06 14:02:23;;;;;;;1.90;0.70;;;14.50;99.90;;;;;;4970906;28;20207;-77
2021/10/06 14:04:49;;;;;;;2.00;0.60;;;14.50;99.90;;;;;;4971940;28;20597;-78
2021/10/06 14:07:14;;;;;;;0.87;0.77;;;14.40;99.90;;;;;;4972552;28;20184;-77
2021/10/06 14:09:40;;;;;;;3.77;0.70;;;14.40;99.90;;;;;;4970627;28;20528;-77
2021/10/06 14:12:06;;;;;;;2.03;0.70;;;14.40;99.90;;;;;;4972457;28;20285;-79
2021/10/06 14:14:31;;;;;;;1.53;1.03;;;14.40;99.90;;;;;;4972686;28;20237;-77
2021/10/06 14:16:56;;;;;;;2.67;0.80;;;14.30;99.90;;;;;;4970506;28;20176;-76
2021/10/06 14:19:22;;;;;;;6.20;0.87;;;14.20;99.90;;;;;;4971976;28;20184;-77
2021/10/06 14:21:48;;;;;;;1.30;0.70;;;14.20;99.90;;;;;;4972560;28;20222;-77
2021/10/06 14:24:13;;;;;;;1.37;0.60;;;14.00;99.90;;;;;;4971172;28;20184;-77
2021/10/06 14:26:39;;;;;;;5.67;0.93;;;13.90;99.90;;;;;;4972569;28;20202;-76
2021/10/06 14:29:04;;;;;;;1.47;0.80;;;13.90;99.90;;;;;;4972047;28;20223;-78
2021/10/06 14:31:30;;;;;;;1.57;0.70;;;13.80;99.90;;;;;;4969969;28;20853;-77
2021/10/06 14:33:57;;;;;;;0.90;0.70;;;13.80;99.90;;;;;;4972227;28;20176;-76
2021/10/06 14:36:22;;;;;;;1.40;0.70;;;13.80;99.90;;;;;;4972812;28;20249;-77
2021/10/06 14:38:48;;;;;;;1.03;0.60;;;13.80;99.90;;;;;;4970351;28;20518;-78
2021/10/06 14:41:13;;;;;;;1.03;0.70;;;13.80;99.90;;;;;;4971833;28;20254;-77
2021/10/06 14:43:39;;;;;;;2.90;0.83;;;13.80;99.90;;;;;;4954068;28;20208;-76
2021/10/06 14:46:04;;;;;;;2.43;0.90;;;13.80;99.90;;;;;;4951031;29;20195;-77
2021/10/06 14:48:31;;;;;;;4.63;0.73;;;13.80;99.90;;;;;;4952892;29;20611;-77
2021/10/06 14:50:59;;;;;;;1.50;0.67;;;13.60;99.90;;;;;;4952706;28;20568;-76
2021/10/06 14:53:25;;;;;;;6.03;1.20;;;13.60;99.90;;;;;;4951320;28;20408;-77
2021/10/06 14:55:50;;;;;;;2.90;0.87;;;13.60;99.90;;;;;;4952912;28;20859;-78
2021/10/06 14:58:16;;;;;;;6.47;0.70;;;13.60;99.90;;;;;;4952640;29;20512;-76
2021/10/06 15:00:46;;;;;;;4.20;0.70;;;13.50;99.90;;;;;;4951215;28;20219;-76
2021/10/06 15:03:14;;;;;;;2.47;0.73;;;13.50;99.90;;;;;;4952721;28;20268;-76
2021/10/06 15:05:39;;;;;;;3.47;0.70;;;13.60;99.90;;;;;;4952797;28;20782;-75
2021/10/06 15:08:05;;;;;;;4.33;0.60;;;13.50;99.90;;;;;;4950763;29;20419;-75
2021/10/06 15:10:34;;;;;;;3.37;0.70;;;13.50;99.90;;;;;;4951499;29;20714;-75
2021/10/06 15:12:59;;;;;;;3.73;0.90;;;13.50;99.90;;;;;;4952366;28;20173;-77
2021/10/06 15:15:25;;;;;;;2.43;0.90;;;13.40;99.90;;;;;;4953177;28;20416;-77
2021/10/06 15:17:50;;;;;;;0.70;0.60;;;13.40;99.90;;;;;;4956045;29;20186;-75
2021/10/06 15:20:16;;;;;;;2.40;0.70;;;13.40;99.90;;;;;;4956580;29;20541;-77
2021/10/06 15:22:43;;;;;;;1.30;0.77;;;13.30;99.90;;;;;;4956613;28;20199;-77
2021/10/06 15:25:09;;;;;;;2.97;0.80;;;13.30;99.90;;;;;;4955165;28;20855;-76
2021/10/06 15:27:34;;;;;;;0.80;0.80;;;13.30;99.90;;;;;;4956384;29;20507;-77
2021/10/06 15:30:00;;;;;;;1.83;0.70;;;13.30;99.90;;;;;;4956405;29;20180;-75
2021/10/06 15:32:25;;;;;;;1.10;0.80;;;13.30;99.90;;;;;;4954772;29;20220;-76
2021/10/06 15:34:51;;;;;;;3.40;1.57;;;13.20;99.90;;;;;;4955389;29;20188;-77
2021/10/06 15:37:16;;;;;;;3.90;0.90;;;13.20;99.90;;;;;;4956295;29;20272;-76
2021/10/06 15:39:42;;;;;;;3.17;0.93;;;13.10;99.90;;;;;;4954938;29;20197;-76
2021/10/06 15:42:08;;;;;;;4.83;1.00;;;13.00;99.90;;;;;;4956107;29;20213;-77
2021/10/06 15:44:34;;;;;;;4.93;0.80;;;12.90;99.90;;;;;;4956611;28;20519;-77
2021/10/06 15:47:00;;;;;;;3.87;0.90;;;12.90;99.90;;;;;;4954641;29;20479;-77
2021/10/06 15:49:25;;;;;;;5.23;1.00;;;12.80;99.90;;;;;;4955680;29;20180;-77
2021/10/06 15:51:53;;;;;;;3.23;0.90;;;12.60;99.90;;;;;;4955860;29;20192;-77
2021/10/06 15:54:18;;;;;;;1.00;0.63;;;12.50;99.90;;;;;;4954144;28;20176;-76
2021/10/06 15:56:44;;;;;;;2.47;1.10;;;12.40;99.90;;;;;;4956089;29;20412;-78
2021/10/06 15:59:10;;;;;;;3.20;1.17;;;12.30;99.90;;;;;;4955395;29;20181;-79
2021/10/06 16:01:36;;;;;;;5.53;1.20;;;12.30;99.90;;;;;;4954052;28;20287;-77
2021/10/06 16:04:02;;;;;;;5.00;1.00;;;12.20;99.90;;;;;;4955780;29;20864;-76
2021/10/06 16:06:28;;;;;;;3.23;0.70;;;12.20;99.90;;;;;;4956034;28;20257;-78
2021/10/06 16:08:53;;;;;;;1.93;0.83;;;12.20;99.90;;;;;;4953737;29;20503;-77
2021/10/06 16:11:19;;;;;;;0.90;0.80;;;12.10;99.90;;;;;;4955645;29;20196;-77
2021/10/06 16:13:45;;;;;;;0.83;0.60;;;12.00;99.90;;;;;;4955515;28;20247;-77
2021/10/06 16:16:10;;;;;;;2.43;0.60;;;12.00;99.90;;;;;;4953687;29;20186;-77
2021/10/06 16:18:36;;;;;;;1.83;0.70;;;12.00;99.90;;;;;;4955130;29;20184;-77
2021/10/06 16:21:01;;;;;;;3.23;0.67;;;11.90;99.90;;;;;;4955064;29;20565;-78
2021/10/06 16:23:27;;;;;;;1.23;0.60;;;11.80;99.90;;;;;;4953687;28;20188;-78
2021/10/06 16:25:52;;;;;;;2.40;0.60;;;11.80;99.90;;;;;;4955022;28;20191;-77
2021/10/06 16:28:18;;;;;;;1.57;0.50;;;11.70;99.90;;;;;;4954799;29;20323;-78
2021/10/06 16:30:43;;;;;;;0.63;0.60;;;11.70;99.90;;;;;;4953399;29;20220;-76
2021/10/06 16:33:12;;;;;;;4.67;0.60;;;11.70;99.90;;;;;;4954832;29;20200;-77
2021/10/06 16:35:37;;;;;;;1.10;0.63;;;11.70;99.90;;;;;;4955315;28;20250;-76
2021/10/06 16:38:03;;;;;;;1.20;0.80;;;11.70;99.90;;;;;;4952110;29;20815;-76
2021/10/06 16:40:28;;;;;;;1.50;0.50;;;11.60;99.90;;;;;;4955424;29;20216;-76
2021/10/06 16:42:55;;;;;;;3.60;0.60;;;11.50;99.90;;;;;;4955086;29;20204;-77
2021/10/06 16:45:21;;;;;;;1.33;0.60;;;11.50;99.90;;;;;;4953420;28;20177;-77
2021/10/06 16:47:46;;;;;;;4.00;0.63;;;11.50;99.90;;;;;;4955109;29;20404;-77
2021/10/06 16:50:12;;;;;;;1.13;0.63;;;11.40;99.90;;;;;;4955038;29;20537;-77
2021/10/06 16:52:37;;;;;;;0.60;0.50;;;11.40;99.90;;;;;;4953119;29;20197;-77
2021/10/06 16:55:04;;;;;;;2.80;0.70;;;11.30;99.90;;;;;;4954896;29;20181;-77
2021/10/06 16:57:30;;;;;;;0.90;0.60;;;11.30;99.90;;;;;;4955027;28;20714;-77
2021/10/06 16:59:56;;;;;;;2.33;1.03;;;11.30;99.90;;;;;;4952885;28;20495;-77
2021/10/06 17:02:21;;;;;;;1.60;0.53;;;11.20;99.90;;;;;;4954860;29;20538;-77
2021/10/06 17:04:48;;;;;;;0.50;0.50;;;11.20;99.90;;;;;;4955022;29;20287;-77
2021/10/06 17:07:13;;;;;;;1.43;0.60;;;11.20;99.90;;;;;;4954084;28;20176;-76
2021/10/06 17:09:39;;;;;;;0.80;0.80;;;11.20;99.90;;;;;;4954715;29;21000;-76
2021/10/06 17:12:07;;;;;;;0.50;0.50;;;11.20;99.90;;;;;;4954909;29;20202;-78
2021/10/06 17:14:33;;;;;;;3.00;0.90;;;11.10;99.90;;;;;;4954160;28;20571;-78
2021/10/06 17:16:58;;;;;;;1.03;0.60;;;11.10;99.90;;;;;;4954980;28;20475;-78
2021/10/06 17:19:26;;;;;;;4.10;0.77;;;11.10;99.90;;;;;;4955035;29;20419;-77
2021/10/06 17:21:53;;;;;;;3.33;0.70;;;11.10;99.90;;;;;;4953883;28;20235;-75